createdAt,value
2023-03-02T00:00:11.108Z,11.02
2023-03-02T00:01:13.536Z,10.70
2023-03-02T00:02:22.625Z,10.20
2023-03-02T00:03:24.934Z,10.30
2023-03-02T00:04:28.432Z,12.00
2023-03-02T00:05:31.079Z,11.73
2023-03-02T00:07:36.082Z,10.32
2023-03-02T00:08:38.811Z,10.95
2023-03-02T00:09:43.213Z,12.10
2023-03-02T00:10:45.901Z,11.13
2023-03-02T00:12:50.205Z,10.48
2023-03-02T00:13:52.083Z,14.80
2023-03-02T00:14:54.291Z,11.98
2023-03-02T00:15:57.289Z,12.10
2023-03-02T00:16:59.224Z,11.95
2023-03-02T00:18:01.134Z,11.93
2023-03-02T00:19:03.794Z,11.98
2023-03-02T00:21:14.206Z,10.50
2023-03-02T00:22:16.658Z,11.02
2023-03-02T00:23:19.533Z,10.82
2023-03-02T00:24:21.687Z,11.95
2023-03-02T00:25:23.724Z,12.35
2023-03-02T00:26:27.817Z,12.77
2023-03-02T00:27:30.534Z,13.23
2023-03-02T00:28:34.045Z,11.15
2023-03-02T00:29:35.769Z,11.05
2023-03-02T00:30:40.843Z,12.07
2023-03-02T00:31:42.779Z,11.48
2023-03-02T00:32:45.886Z,10.55
2023-03-02T00:33:49.163Z,11.93
2023-03-02T00:34:51.069Z,11.43
2023-03-02T00:35:53.312Z,11.23
2023-03-02T00:36:57.841Z,12.10
2023-03-02T00:38:00.178Z,12.10
2023-03-02T00:39:03.830Z,12.25
2023-03-02T00:40:07.476Z,12.02
2023-03-02T00:41:11.477Z,11.88
2023-03-02T00:42:14.230Z,11.38
2023-03-02T00:43:16.891Z,12.02
2023-03-02T00:44:19.146Z,12.60
2023-03-02T00:45:21.388Z,12.40
2023-03-02T00:46:24.856Z,11.90
2023-03-02T00:47:27.738Z,11.68
2023-03-02T00:48:29.940Z,11.68
2023-03-02T00:49:31.730Z,12.32
2023-03-02T00:50:33.694Z,11.57
2023-03-02T00:51:35.444Z,11.60
2023-03-02T00:52:37.508Z,11.32
2023-03-02T00:53:40.099Z,11.77
2023-03-02T00:55:53.662Z,11.82
2023-03-02T00:56:56.144Z,11.90
2023-03-02T00:57:58.495Z,11.80
2023-03-02T00:59:32.113Z,11.63
2023-03-02T01:00:47.119Z,11.23
2023-03-02T01:01:58.344Z,11.38
2023-03-02T01:03:02.060Z,11.00
2023-03-02T01:04:04.447Z,10.77
2023-03-02T01:05:08.334Z,12.55
2023-03-02T01:06:18.777Z,10.57
2023-03-02T01:07:21.330Z,12.30
2023-03-02T01:08:25.429Z,11.65
2023-03-02T01:09:28.307Z,11.45
2023-03-02T01:10:32.498Z,11.90
2023-03-02T01:11:34.449Z,13.55
2023-03-02T01:12:37.624Z,11.20
2023-03-02T01:13:39.790Z,11.95
2023-03-02T01:14:44.860Z,11.63
2023-03-02T01:15:48.901Z,12.32
2023-03-02T01:16:50.881Z,13.43
2023-03-02T01:17:52.978Z,12.25
2023-03-02T01:18:55.424Z,12.70
2023-03-02T01:19:57.578Z,11.40
2023-03-02T01:21:03.538Z,12.20
2023-03-02T01:22:06.056Z,11.98
2023-03-02T01:24:11.342Z,11.75
2023-03-02T01:25:14.775Z,11.82
2023-03-02T01:26:17.210Z,11.27
2023-03-02T01:27:21.490Z,11.75
2023-03-02T01:28:23.909Z,11.90
2023-03-02T01:29:26.133Z,12.10
2023-03-02T01:30:29.256Z,10.75
2023-03-02T01:31:31.541Z,12.05
2023-03-02T01:32:34.279Z,11.82
2023-03-02T01:33:36.454Z,12.13
2023-03-02T01:34:38.713Z,11.18
2023-03-02T01:35:41.289Z,11.05
2023-03-02T01:36:45.806Z,11.65
2023-03-02T01:37:48.020Z,12.05
2023-03-02T01:38:50.976Z,12.73
2023-03-02T01:39:52.855Z,11.73
2023-03-02T01:40:54.944Z,12.63
2023-03-02T01:41:56.757Z,11.80
2023-03-02T01:43:02.507Z,11.65
2023-03-02T01:44:04.544Z,11.60
2023-03-02T01:45:28.132Z,12.52
2023-03-02T01:46:35.713Z,11.18
2023-03-02T01:47:40.273Z,11.25
2023-03-02T01:48:52.347Z,12.60
2023-03-02T01:50:23.683Z,11.20
2023-03-02T01:51:35.313Z,10.80
2023-03-02T01:52:39.681Z,12.40
2023-03-02T01:53:47.075Z,11.88
2023-03-02T01:54:51.301Z,12.00
2023-03-02T01:55:54.860Z,12.20
2023-03-02T01:56:59.920Z,12.70
2023-03-02T01:58:03.079Z,11.88
2023-03-02T01:59:10.213Z,12.10
2023-03-02T02:00:19.065Z,12.60
2023-03-02T02:01:22.905Z,11.82
2023-03-02T02:02:25.186Z,11.88
2023-03-02T02:03:29.427Z,12.00
2023-03-02T02:06:17.956Z,11.07
2023-03-02T02:07:19.682Z,11.05
2023-03-02T02:08:21.322Z,12.07
2023-03-02T02:09:24.073Z,12.35
2023-03-02T02:10:25.825Z,12.98
2023-03-02T02:11:27.580Z,13.85
2023-03-02T02:12:29.123Z,12.70
2023-03-02T02:13:30.693Z,12.48
2023-03-02T02:14:32.421Z,12.20
2023-03-02T02:15:34.484Z,11.80
2023-03-02T02:16:37.198Z,12.43
2023-03-02T02:17:38.973Z,12.05
2023-03-02T02:18:41.190Z,12.57
2023-03-02T02:19:57.812Z,13.77
2023-03-02T02:20:59.658Z,12.25
2023-03-02T02:22:01.872Z,11.85
2023-03-02T02:23:14.511Z,14.40
2023-03-02T02:24:27.439Z,13.10
2023-03-02T02:25:52.961Z,12.57
2023-03-02T02:26:55.491Z,12.20
2023-03-02T02:27:57.450Z,12.93
2023-03-02T02:29:03.148Z,12.43
2023-03-02T02:30:06.802Z,11.88
2023-03-02T02:31:15.599Z,11.43
2023-03-02T02:32:20.365Z,12.30
2023-03-02T02:33:23.937Z,13.05
2023-03-02T02:34:31.128Z,11.02
2023-03-02T02:35:36.552Z,12.57
2023-03-02T02:36:41.645Z,13.02
2023-03-02T02:37:52.773Z,13.05
2023-03-02T02:38:56.419Z,13.00
2023-03-02T02:40:00.533Z,12.20
2023-03-02T02:42:13.730Z,11.13
2023-03-02T02:43:17.342Z,11.18
2023-03-02T02:44:19.191Z,12.68
2023-03-02T02:45:27.533Z,12.52
2023-03-02T02:46:29.426Z,12.52
2023-03-02T02:47:31.830Z,12.40
2023-03-02T02:48:33.610Z,12.32
2023-03-02T02:49:37.353Z,12.45
2023-03-02T02:50:39.087Z,13.77
2023-03-02T02:51:40.946Z,12.70
2023-03-02T02:52:43.027Z,13.07
2023-03-02T02:53:48.812Z,12.13
2023-03-02T02:54:52.952Z,11.93
2023-03-02T02:55:56.870Z,12.60
2023-03-02T02:56:59.632Z,11.75
2023-03-02T02:58:09.997Z,12.32
2023-03-02T02:59:21.247Z,13.48
2023-03-02T03:00:23.339Z,11.65
2023-03-02T03:01:26.150Z,12.45
2023-03-02T03:02:30.889Z,12.35
2023-03-02T03:03:36.161Z,12.48
2023-03-02T03:04:40.887Z,13.18
2023-03-02T03:05:43.089Z,12.02
2023-03-02T03:07:02.961Z,13.07
2023-03-02T03:08:39.486Z,12.40
2023-03-02T03:09:41.026Z,11.95
2023-03-02T03:10:43.324Z,11.05
2023-03-02T03:11:47.928Z,12.35
2023-03-02T03:12:49.910Z,11.70
2023-03-02T03:13:55.832Z,11.00
2023-03-02T03:14:57.731Z,11.95
2023-03-02T03:16:00.744Z,11.43
2023-03-02T03:17:02.657Z,12.10
2023-03-02T03:18:04.953Z,11.80
2023-03-02T03:19:18.296Z,11.77
2023-03-02T03:20:19.931Z,11.60
2023-03-02T03:21:21.606Z,12.13
2023-03-02T03:22:23.977Z,11.73
2023-03-02T03:23:25.704Z,11.63
2023-03-02T03:24:28.997Z,12.55
2023-03-02T03:25:32.002Z,13.15
2023-03-02T03:26:34.598Z,13.10
2023-03-02T03:27:37.123Z,12.38
2023-03-02T03:28:39.265Z,11.85
2023-03-02T03:29:43.562Z,12.07
2023-03-02T03:30:47.155Z,10.93
2023-03-02T03:31:48.805Z,11.52
2023-03-02T03:32:50.405Z,10.95
2023-03-02T03:33:52.395Z,11.50
2023-03-02T03:34:53.959Z,11.43
2023-03-02T03:36:07.392Z,11.90
2023-03-02T03:37:10.913Z,11.95
2023-03-02T03:38:12.573Z,11.65
2023-03-02T03:39:15.257Z,11.45
2023-03-02T03:41:19.808Z,10.18
2023-03-02T03:42:21.452Z,10.73
2023-03-02T03:43:23.899Z,12.32
2023-03-02T03:44:28.559Z,11.35
2023-03-02T03:45:30.930Z,12.43
2023-03-02T03:46:33.500Z,12.38
2023-03-02T03:48:38.383Z,9.63
2023-03-02T03:49:40.409Z,10.88
2023-03-02T03:50:42.514Z,10.93
2023-03-02T03:51:44.114Z,12.00
2023-03-02T03:52:45.753Z,11.10
2023-03-02T03:54:01.221Z,11.88
2023-03-02T03:55:08.645Z,11.90
2023-03-02T03:56:10.378Z,10.70
2023-03-02T03:57:12.151Z,12.85
2023-03-02T03:58:14.474Z,12.05
2023-03-02T03:59:19.474Z,12.35
2023-03-02T04:00:27.805Z,11.98
2023-03-02T04:01:47.196Z,11.38
2023-03-02T04:02:50.689Z,10.68
2023-03-02T04:03:52.909Z,11.65
2023-03-02T04:04:54.510Z,11.60
2023-03-02T04:05:56.142Z,11.82
2023-03-02T04:06:58.585Z,11.55
2023-03-02T04:08:02.212Z,11.88
2023-03-02T04:09:05.706Z,13.35
2023-03-02T04:10:09.642Z,12.07
2023-03-02T04:11:13.331Z,11.90
2023-03-02T04:12:14.976Z,11.90
2023-03-02T04:13:26.221Z,11.23
2023-03-02T04:14:27.911Z,11.65
2023-03-02T04:15:30.750Z,12.73
2023-03-02T04:16:34.759Z,12.52
2023-03-02T04:17:36.518Z,12.02
2023-03-02T04:18:38.300Z,11.80
2023-03-02T04:19:40.942Z,11.70
2023-03-02T04:20:43.876Z,12.55
2023-03-02T04:21:48.034Z,10.73
2023-03-02T04:22:53.314Z,12.65
2023-03-02T04:23:55.068Z,13.77
2023-03-02T04:24:57.786Z,13.82
2023-03-02T04:26:01.328Z,13.48
2023-03-02T04:27:03.230Z,13.07
2023-03-02T04:28:06.123Z,12.10
2023-03-02T04:29:12.584Z,11.68
2023-03-02T04:30:17.838Z,11.82
2023-03-02T04:31:19.503Z,12.88
2023-03-02T04:32:21.862Z,11.85
2023-03-02T04:33:28.363Z,11.70
2023-03-02T04:34:30.204Z,11.90
2023-03-02T04:35:31.924Z,12.18
2023-03-02T04:36:36.956Z,12.63
2023-03-02T04:37:41.353Z,11.50
2023-03-02T04:39:47.375Z,10.60
2023-03-02T04:40:49.244Z,11.52
2023-03-02T04:41:51.232Z,12.48
2023-03-02T04:42:52.830Z,11.02
2023-03-02T04:43:54.369Z,12.38
2023-03-02T04:44:56.025Z,12.00
2023-03-02T04:45:58.156Z,11.82
2023-03-02T04:46:59.743Z,12.75
2023-03-02T04:48:01.401Z,13.00
2023-03-02T04:49:04.281Z,12.45
2023-03-02T04:50:06.593Z,11.65
2023-03-02T04:51:14.300Z,12.35
2023-03-02T04:52:16.399Z,12.60
2023-03-02T04:53:18.024Z,12.23
2023-03-02T04:54:27.152Z,12.55
2023-03-02T04:55:28.775Z,12.30
2023-03-02T04:56:31.015Z,11.93
2023-03-02T04:57:33.266Z,12.82
2023-03-02T04:58:34.822Z,12.57
2023-03-02T04:59:36.420Z,12.13
2023-03-02T05:00:38.106Z,11.93
2023-03-02T05:01:41.241Z,12.02
2023-03-02T05:02:42.877Z,12.35
2023-03-02T05:03:44.545Z,12.10
2023-03-02T05:04:46.196Z,11.43
2023-03-02T05:05:47.862Z,11.35
2023-03-02T05:06:49.592Z,11.48
2023-03-02T05:07:51.497Z,10.57
2023-03-02T05:08:53.758Z,10.75
2023-03-02T05:09:55.284Z,11.30
2023-03-02T05:10:58.214Z,11.13
2023-03-02T05:12:01.093Z,10.30
2023-03-02T05:13:04.760Z,10.98
2023-03-02T05:14:08.646Z,11.27
2023-03-02T05:15:10.748Z,10.95
2023-03-02T05:16:12.461Z,11.10
2023-03-02T05:17:14.086Z,11.75
2023-03-02T05:18:15.672Z,11.18
2023-03-02T05:19:17.566Z,10.65
2023-03-02T05:20:19.719Z,11.32
2023-03-02T05:21:21.842Z,11.02
2023-03-02T05:22:23.445Z,10.68
2023-03-02T05:23:25.939Z,10.80
2023-03-02T05:24:27.803Z,11.50
2023-03-02T05:25:31.887Z,11.35
2023-03-02T05:26:33.838Z,11.30
2023-03-02T05:27:36.776Z,12.48
2023-03-02T05:29:39.969Z,11.57
2023-03-02T05:30:42.048Z,12.98
2023-03-02T05:31:46.299Z,12.77
2023-03-02T05:32:48.978Z,11.85
2023-03-02T05:34:52.002Z,11.43
2023-03-02T05:35:53.755Z,10.93
2023-03-02T05:36:57.140Z,11.70
2023-03-02T05:37:58.713Z,11.88
2023-03-02T05:39:00.275Z,11.48
2023-03-02T05:40:01.861Z,11.90
2023-03-02T05:41:03.984Z,12.10
2023-03-02T05:42:06.040Z,11.25
2023-03-02T05:43:08.112Z,12.15
2023-03-02T05:44:12.020Z,11.60
2023-03-02T05:45:19.846Z,11.38
2023-03-02T05:46:29.826Z,12.10
2023-03-02T05:47:31.516Z,11.43
2023-03-02T05:48:33.134Z,11.20
2023-03-02T05:49:34.731Z,11.20
2023-03-02T05:50:36.297Z,11.63
2023-03-02T05:51:38.054Z,11.70
2023-03-02T05:52:39.677Z,11.85
2023-03-02T05:53:41.220Z,12.40
2023-03-02T05:54:42.811Z,11.82
2023-03-02T05:55:44.405Z,12.75
2023-03-02T05:56:45.954Z,11.15
2023-03-02T05:57:49.426Z,12.23
2023-03-02T05:58:51.060Z,12.57
2023-03-02T05:59:52.659Z,12.43
2023-03-02T06:00:54.223Z,11.77
2023-03-02T06:01:58.807Z,12.90
2023-03-02T06:03:00.658Z,10.90
2023-03-02T06:04:02.784Z,11.13
2023-03-02T06:05:08.547Z,11.30
2023-03-02T06:06:13.933Z,12.18
2023-03-02T06:07:15.889Z,10.80
2023-03-02T06:08:18.909Z,11.35
2023-03-02T06:09:20.540Z,10.85
2023-03-02T06:10:22.875Z,10.68
2023-03-02T06:11:24.442Z,13.32
2023-03-02T06:12:26.036Z,12.70
2023-03-02T06:13:27.842Z,15.15
2023-03-02T06:14:29.398Z,14.93
2023-03-02T06:15:31.170Z,13.15
2023-03-02T06:16:34.161Z,12.13
2023-03-02T06:17:36.048Z,12.57
2023-03-02T06:18:40.888Z,11.85
2023-03-02T06:19:42.985Z,12.10
2023-03-02T06:20:44.549Z,10.88
2023-03-02T06:21:46.098Z,11.85
2023-03-02T06:22:47.757Z,11.35
2023-03-02T06:23:49.495Z,10.95
2023-03-02T06:24:51.154Z,10.25
2023-03-02T06:25:52.783Z,10.70
2023-03-02T06:26:54.911Z,10.68
2023-03-02T06:27:56.436Z,10.38
2023-03-02T06:28:58.822Z,11.32
2023-03-02T06:30:00.544Z,10.40
2023-03-02T06:31:02.194Z,11.00
2023-03-02T06:32:03.941Z,10.23
2023-03-02T06:33:05.578Z,10.32
2023-03-02T06:34:07.172Z,10.93
2023-03-02T06:35:09.517Z,10.70
2023-03-02T06:36:12.560Z,10.55
2023-03-02T06:37:14.207Z,10.57
2023-03-02T06:38:16.032Z,11.18
2023-03-02T06:39:17.660Z,9.98
2023-03-02T06:40:21.167Z,10.23
2023-03-02T06:41:22.839Z,10.52
2023-03-02T06:42:29.263Z,11.38
2023-03-02T06:43:30.840Z,11.25
2023-03-02T06:44:32.496Z,10.13
2023-03-02T06:45:34.259Z,10.40
2023-03-02T06:46:36.639Z,10.80
2023-03-02T06:47:38.657Z,10.20
2023-03-02T06:48:40.216Z,11.13
2023-03-02T06:49:41.838Z,10.70
2023-03-02T06:50:43.412Z,10.30
2023-03-02T06:51:44.994Z,9.63
2023-03-02T06:52:46.567Z,9.93
2023-03-02T06:53:48.129Z,10.00
2023-03-02T06:54:49.716Z,10.45
2023-03-02T06:55:51.488Z,9.48
2023-03-02T06:56:53.098Z,10.32
2023-03-02T06:57:54.725Z,10.45
2023-03-02T06:58:56.350Z,10.07
2023-03-02T06:59:57.911Z,10.23
2023-03-02T07:00:59.545Z,11.23
2023-03-02T07:02:01.429Z,10.57
2023-03-02T07:03:03.042Z,10.35
2023-03-02T07:04:04.813Z,10.18
2023-03-02T07:05:07.068Z,9.52
2023-03-02T07:06:08.629Z,10.95
2023-03-02T07:07:10.242Z,10.45
2023-03-02T07:08:11.789Z,9.10
2023-03-02T07:09:13.693Z,9.80
2023-03-02T07:10:16.129Z,9.60
2023-03-02T07:11:17.766Z,9.75
2023-03-02T07:12:19.418Z,10.63
2023-03-02T07:13:21.037Z,9.45
2023-03-02T07:14:22.626Z,8.90
2023-03-02T07:15:24.216Z,9.15
2023-03-02T07:16:26.023Z,9.05
2023-03-02T07:17:27.703Z,9.60
2023-03-02T07:18:29.310Z,9.70
2023-03-02T07:19:30.912Z,8.32
2023-03-02T07:20:32.566Z,9.75
2023-03-02T07:21:34.530Z,8.10
2023-03-02T07:22:36.651Z,8.93
2023-03-02T07:23:38.271Z,9.48
2023-03-02T07:24:39.877Z,9.65
2023-03-02T07:25:41.479Z,8.35
2023-03-02T07:26:43.322Z,8.93
2023-03-02T07:27:44.978Z,8.82
2023-03-02T07:28:46.624Z,9.15
2023-03-02T07:29:48.217Z,8.80
2023-03-02T07:30:51.033Z,9.50
2023-03-02T07:31:57.065Z,11.52
2023-03-02T07:32:58.667Z,9.38
2023-03-02T07:34:00.301Z,8.75
2023-03-02T07:35:02.050Z,9.20
2023-03-02T07:36:04.242Z,8.85
2023-03-02T07:37:05.932Z,8.60
2023-03-02T07:38:07.496Z,9.00
2023-03-02T07:39:09.042Z,8.70
2023-03-02T07:40:12.199Z,8.85
2023-03-02T07:41:15.491Z,9.32
2023-03-02T07:42:17.430Z,9.30
2023-03-02T07:43:25.425Z,12.07
2023-03-02T07:44:27.735Z,9.45
2023-03-02T07:45:29.322Z,9.25
2023-03-02T07:46:31.029Z,8.98
2023-03-02T07:47:32.772Z,9.60
2023-03-02T07:48:34.619Z,8.27
2023-03-02T07:49:36.171Z,9.88
2023-03-02T07:50:38.053Z,9.43
2023-03-02T07:51:39.672Z,9.70
2023-03-02T07:52:41.322Z,9.02
2023-03-02T07:53:42.915Z,9.52
2023-03-02T07:54:44.510Z,9.15
2023-03-02T07:55:46.066Z,9.02
2023-03-02T07:56:47.735Z,10.55
2023-03-02T07:57:49.361Z,8.60
2023-03-02T07:58:50.943Z,9.57
2023-03-02T07:59:52.495Z,9.07
2023-03-02T08:00:54.083Z,8.80
2023-03-02T08:01:56.913Z,10.15
2023-03-02T08:02:58.659Z,9.57
2023-03-02T08:04:00.286Z,9.48
2023-03-02T08:05:01.893Z,9.82
2023-03-02T08:06:11.336Z,9.68
2023-03-02T08:07:12.927Z,9.30
2023-03-02T08:08:14.717Z,8.63
2023-03-02T08:09:17.187Z,9.00
2023-03-02T08:10:18.920Z,8.93
2023-03-02T08:11:20.569Z,9.10
2023-03-02T08:12:22.255Z,9.90
2023-03-02T08:13:23.854Z,8.18
2023-03-02T08:14:25.539Z,9.18
2023-03-02T08:15:27.138Z,9.13
2023-03-02T08:16:29.389Z,9.75
2023-03-02T08:17:31.113Z,8.82
2023-03-02T08:18:33.249Z,8.90
2023-03-02T08:19:34.837Z,9.80
2023-03-02T08:20:37.283Z,9.27
2023-03-02T08:21:38.972Z,9.40
2023-03-02T08:22:40.599Z,8.85
2023-03-02T08:23:42.573Z,9.38
2023-03-02T08:24:44.213Z,9.00
2023-03-02T08:25:45.857Z,9.25
2023-03-02T08:26:47.444Z,8.70
2023-03-02T08:27:49.033Z,9.32
2023-03-02T08:28:50.673Z,9.23
2023-03-02T08:29:54.153Z,9.70
2023-03-02T08:31:00.138Z,8.90
2023-03-02T08:32:01.934Z,8.68
2023-03-02T08:33:06.986Z,8.50
2023-03-02T08:34:08.815Z,9.07
2023-03-02T08:35:10.613Z,8.65
2023-03-02T08:36:17.028Z,9.43
2023-03-02T08:37:19.286Z,9.38
2023-03-02T08:38:20.902Z,9.40
2023-03-02T08:39:23.520Z,9.32
2023-03-02T08:40:26.216Z,9.00
2023-03-02T08:41:27.798Z,9.65
2023-03-02T08:42:29.420Z,8.63
2023-03-02T08:43:30.986Z,9.10
2023-03-02T08:44:32.578Z,9.32
2023-03-02T08:45:34.766Z,8.98
2023-03-02T08:46:36.360Z,9.50
2023-03-02T08:47:38.134Z,9.20
2023-03-02T08:48:39.787Z,9.45
2023-03-02T08:49:41.480Z,9.65
2023-03-02T08:50:43.076Z,8.40
2023-03-02T08:51:45.392Z,9.93
2023-03-02T08:52:47.321Z,8.68
2023-03-02T08:53:50.604Z,9.32
2023-03-02T08:54:52.291Z,10.43
2023-03-02T08:55:54.795Z,9.30
2023-03-02T08:57:57.841Z,9.93
2023-03-02T08:59:02.229Z,8.85
2023-03-02T09:00:08.629Z,9.43
2023-03-02T09:01:15.150Z,9.20
2023-03-02T09:02:16.924Z,9.50
2023-03-02T09:03:18.538Z,9.10
2023-03-02T09:04:20.184Z,9.30
2023-03-02T09:05:21.781Z,9.23
2023-03-02T09:06:23.457Z,8.88
2023-03-02T09:07:25.127Z,9.30
2023-03-02T09:08:26.823Z,9.57
2023-03-02T09:09:28.452Z,9.48
2023-03-02T09:10:30.041Z,9.80
2023-03-02T09:11:32.747Z,9.15
2023-03-02T09:12:34.566Z,9.60
2023-03-02T09:13:36.461Z,9.30
2023-03-02T09:14:38.176Z,9.52
2023-03-02T09:15:39.841Z,9.48
2023-03-02T09:16:41.628Z,10.25
2023-03-02T09:17:43.823Z,10.05
2023-03-02T09:18:45.410Z,10.43
2023-03-02T09:19:47.050Z,9.70
2023-03-02T09:20:52.475Z,10.20
2023-03-02T09:21:54.121Z,9.60
2023-03-02T09:22:55.707Z,10.40
2023-03-02T09:23:58.458Z,9.52
2023-03-02T09:25:00.102Z,9.85
2023-03-02T09:26:01.696Z,9.50
2023-03-02T09:27:04.005Z,9.55
2023-03-02T09:28:05.561Z,9.50
2023-03-02T09:29:07.340Z,9.63
2023-03-02T09:30:09.896Z,10.55
2023-03-02T09:31:11.678Z,10.13
2023-03-02T09:32:15.879Z,9.77
2023-03-02T09:33:17.768Z,9.85
2023-03-02T09:34:19.676Z,10.20
2023-03-02T09:35:21.249Z,9.43
2023-03-02T09:36:24.493Z,10.00
2023-03-02T09:37:28.051Z,9.77
2023-03-02T09:38:29.705Z,10.60
2023-03-02T09:39:31.322Z,9.63
2023-03-02T09:40:34.052Z,9.35
2023-03-02T09:41:50.433Z,9.70
2023-03-02T09:43:04.068Z,9.32
2023-03-02T09:44:27.365Z,9.95
2023-03-02T09:45:39.851Z,9.82
2023-03-02T09:46:49.261Z,10.15
2023-03-02T09:48:17.040Z,10.55
2023-03-02T09:49:40.009Z,9.50
2023-03-02T09:51:00.922Z,9.68
2023-03-02T09:52:06.804Z,10.32
2023-03-02T09:53:15.483Z,10.43
2023-03-02T09:54:21.241Z,9.73
2023-03-02T09:55:28.273Z,10.02
2023-03-02T09:56:31.064Z,9.70
2023-03-02T09:57:35.316Z,10.05
2023-03-02T09:58:39.776Z,9.70
2023-03-02T09:59:49.012Z,10.10
2023-03-02T10:00:51.389Z,9.70
2023-03-02T10:02:23.429Z,9.77
2023-03-02T10:03:32.477Z,10.13
2023-03-02T10:04:42.883Z,11.20
2023-03-02T10:05:54.581Z,9.90
2023-03-02T10:07:10.505Z,10.25
2023-03-02T10:08:23.090Z,9.77
2023-03-02T10:09:24.872Z,10.52
2023-03-02T10:10:35.557Z,10.30
2023-03-02T10:11:49.152Z,10.10
2023-03-02T10:13:21.011Z,9.80
2023-03-02T10:14:27.298Z,9.30
2023-03-02T10:15:38.993Z,10.43
2023-03-02T10:17:25.540Z,9.63
2023-03-02T10:18:45.241Z,10.57
2023-03-02T10:19:56.791Z,9.30
2023-03-02T10:21:05.969Z,9.35
2023-03-02T10:22:43.419Z,10.02
2023-03-02T10:24:09.976Z,9.25
2023-03-02T10:25:20.949Z,9.18
2023-03-02T10:26:35.868Z,9.40
2023-03-02T10:27:43.983Z,11.05
2023-03-02T10:28:54.035Z,9.75
2023-03-02T10:30:16.050Z,9.85
2023-03-02T10:31:29.775Z,9.65
2023-03-02T10:32:42.202Z,10.02
2023-03-02T10:33:44.055Z,9.60
2023-03-02T10:34:45.901Z,9.95
2023-03-02T10:35:52.236Z,10.40
2023-03-02T10:36:54.023Z,9.73
2023-03-02T10:38:00.258Z,10.02
2023-03-02T10:39:03.387Z,10.48
2023-03-02T10:40:05.264Z,10.48
2023-03-02T10:41:08.658Z,9.85
2023-03-02T10:42:23.797Z,9.50
2023-03-02T10:43:34.291Z,10.75
2023-03-02T10:44:39.259Z,9.38
2023-03-02T10:45:40.964Z,9.90
2023-03-02T10:46:45.150Z,9.77
2023-03-02T10:47:46.794Z,9.57
2023-03-02T10:48:56.386Z,9.00
2023-03-02T10:49:58.302Z,10.52
2023-03-02T10:51:00.473Z,10.05
2023-03-02T10:52:16.963Z,10.75
2023-03-02T10:53:19.074Z,10.20
2023-03-02T10:54:20.761Z,10.20
2023-03-02T10:55:22.658Z,10.23
2023-03-02T10:56:24.299Z,10.27
2023-03-02T10:57:39.096Z,9.98
2023-03-02T10:58:41.019Z,9.63
2023-03-02T10:59:47.126Z,9.70
2023-03-02T11:01:18.410Z,10.55
2023-03-02T11:02:25.161Z,10.15
2023-03-02T11:03:27.289Z,10.32
2023-03-02T11:04:30.493Z,10.57
2023-03-02T11:05:40.022Z,10.55
2023-03-02T11:06:41.602Z,10.55
2023-03-02T11:07:52.963Z,10.60
2023-03-02T11:09:00.957Z,10.20
2023-03-02T11:10:06.640Z,11.00
2023-03-02T11:11:21.940Z,11.05
2023-03-02T11:12:23.646Z,10.23
2023-03-02T11:13:36.771Z,10.50
2023-03-02T11:14:38.465Z,9.80
2023-03-02T11:16:18.592Z,9.95
2023-03-02T11:17:33.397Z,10.77
2023-03-02T11:18:40.474Z,10.18
2023-03-02T11:19:42.135Z,10.50
2023-03-02T11:20:45.770Z,10.93
2023-03-02T11:21:55.995Z,10.23
2023-03-02T11:23:18.670Z,10.25
2023-03-02T11:24:30.952Z,10.27
2023-03-02T11:25:37.163Z,9.88
2023-03-02T11:26:52.548Z,10.48
2023-03-02T11:28:03.946Z,10.10
2023-03-02T11:29:29.832Z,9.90
2023-03-02T11:30:34.419Z,9.55
2023-03-02T11:31:44.337Z,9.05
2023-03-02T11:32:58.949Z,9.55
2023-03-02T11:34:29.168Z,9.85
2023-03-02T11:35:42.749Z,9.48
2023-03-02T11:36:56.509Z,9.60
2023-03-02T11:38:06.308Z,10.30
2023-03-02T11:39:12.437Z,8.98
2023-03-02T11:40:37.034Z,9.80
2023-03-02T11:41:38.733Z,10.05
2023-03-02T11:42:42.381Z,9.10
2023-03-02T11:43:43.978Z,9.90
2023-03-02T11:44:47.264Z,9.00
2023-03-02T11:45:58.500Z,9.32
2023-03-02T11:47:01.258Z,10.02
2023-03-02T11:48:07.254Z,9.63
2023-03-02T11:49:15.373Z,9.65
2023-03-02T11:50:16.958Z,9.88
2023-03-02T11:51:22.895Z,9.82
2023-03-02T11:52:29.051Z,9.32
2023-03-02T11:53:43.564Z,9.27
2023-03-02T11:55:50.651Z,8.88
2023-03-02T11:56:52.451Z,9.32
2023-03-02T11:59:12.707Z,9.48
2023-03-02T12:00:32.294Z,10.68
2023-03-02T12:01:36.107Z,11.70
2023-03-02T12:02:38.175Z,11.88
2023-03-02T12:03:41.569Z,11.93
2023-03-02T12:04:43.149Z,11.90
2023-03-02T12:05:58.684Z,12.10
2023-03-02T12:07:03.693Z,13.07
2023-03-02T12:08:35.353Z,12.10
2023-03-02T12:09:37.938Z,11.88
2023-03-02T12:10:43.073Z,12.55
2023-03-02T12:11:46.101Z,12.57
2023-03-02T12:12:48.578Z,12.30
2023-03-02T12:14:52.503Z,12.18
2023-03-02T12:15:56.388Z,11.27
2023-03-02T12:17:06.333Z,11.68
2023-03-02T12:18:23.356Z,12.05
2023-03-02T12:19:38.388Z,12.43
2023-03-02T12:20:42.903Z,11.57
2023-03-02T12:22:10.554Z,12.45
2023-03-02T12:23:25.012Z,12.38
2023-03-02T12:24:31.874Z,11.85
2023-03-02T12:25:43.853Z,11.63
2023-03-02T12:26:45.411Z,11.50
2023-03-02T12:27:49.105Z,12.18
2023-03-02T12:29:02.920Z,11.80
2023-03-02T12:30:23.678Z,13.02
2023-03-02T12:31:26.054Z,13.65
2023-03-02T12:32:30.274Z,13.55
2023-03-02T12:33:32.142Z,11.35
2023-03-02T12:34:43.254Z,12.05
2023-03-02T12:35:45.570Z,12.63
2023-03-02T12:36:47.752Z,12.77
2023-03-02T12:37:57.101Z,12.63
2023-03-02T12:39:26.170Z,13.05
2023-03-02T12:41:02.161Z,12.05
2023-03-02T12:42:16.285Z,12.10
2023-03-02T12:43:55.330Z,11.80
2023-03-02T12:45:26.352Z,11.90
2023-03-02T12:46:33.636Z,13.05
2023-03-02T12:47:36.161Z,13.23
2023-03-02T12:48:44.346Z,12.30
2023-03-02T12:49:51.309Z,11.65
2023-03-02T12:50:56.321Z,13.73
2023-03-02T12:52:02.958Z,13.20
2023-03-02T12:53:07.248Z,12.82
2023-03-02T12:54:17.335Z,12.95
2023-03-02T12:55:20.517Z,12.73
2023-03-02T12:56:26.088Z,13.27
2023-03-02T12:57:27.825Z,13.65
2023-03-02T12:58:29.602Z,13.57
2023-03-02T12:59:31.218Z,12.38
2023-03-02T13:00:34.749Z,12.65
2023-03-02T13:01:36.278Z,13.75
2023-03-02T13:02:46.579Z,13.00
2023-03-02T13:03:48.545Z,12.70
2023-03-02T13:05:01.441Z,12.85
2023-03-02T13:06:05.581Z,12.80
2023-03-02T13:07:15.357Z,12.82
2023-03-02T13:08:24.300Z,12.60
2023-03-02T13:09:25.986Z,12.15
2023-03-02T13:10:40.254Z,12.95
2023-03-02T13:11:44.257Z,13.63
2023-03-02T13:12:46.313Z,13.40
2023-03-02T13:13:48.605Z,13.95
2023-03-02T13:14:52.986Z,13.40
2023-03-02T13:15:56.150Z,13.57
2023-03-02T13:17:05.532Z,13.18
2023-03-02T13:18:12.157Z,13.10
2023-03-02T13:19:16.888Z,12.55
2023-03-02T13:20:19.410Z,12.77
2023-03-02T13:21:22.160Z,13.00
2023-03-02T13:22:24.003Z,12.05
2023-03-02T13:23:27.743Z,12.82
2023-03-02T13:24:33.881Z,12.50
2023-03-02T13:25:35.480Z,12.77
2023-03-02T13:26:39.773Z,13.18
2023-03-02T13:27:52.724Z,13.55
2023-03-02T13:29:21.101Z,12.45
2023-03-02T13:30:25.814Z,13.65
2023-03-02T13:31:27.565Z,12.40
2023-03-02T13:32:36.608Z,14.30
2023-03-02T13:33:46.628Z,13.27
2023-03-02T13:34:59.131Z,14.10
2023-03-02T13:36:00.916Z,13.70
2023-03-02T13:37:02.669Z,13.27
2023-03-02T13:38:17.200Z,12.43
2023-03-02T13:39:27.350Z,12.98
2023-03-02T13:40:38.542Z,13.40
2023-03-02T13:41:40.738Z,12.75
2023-03-02T13:42:42.599Z,12.70
2023-03-02T13:43:44.239Z,13.07
2023-03-02T13:44:46.315Z,12.43
2023-03-02T13:45:58.844Z,12.77
2023-03-02T13:47:01.441Z,14.07
2023-03-02T13:48:17.194Z,13.35
2023-03-02T13:49:44.982Z,12.60
2023-03-02T13:50:59.724Z,12.88
2023-03-02T13:52:28.326Z,13.75
2023-03-02T13:53:31.700Z,13.50
2023-03-02T13:54:35.492Z,13.52
2023-03-02T13:55:39.534Z,14.00
2023-03-02T13:56:41.287Z,14.00
2023-03-02T13:57:45.241Z,14.10
2023-03-02T13:58:47.409Z,14.25
2023-03-02T13:59:49.193Z,12.90
2023-03-02T14:00:51.701Z,13.43
2023-03-02T14:01:53.332Z,13.43
2023-03-02T14:02:54.944Z,14.95
2023-03-02T14:03:57.448Z,13.70
2023-03-02T14:06:01.047Z,12.75
2023-03-02T14:07:02.772Z,13.35
2023-03-02T14:08:07.226Z,13.52
2023-03-02T14:09:08.992Z,12.75
2023-03-02T14:10:11.761Z,12.50
2023-03-02T14:11:15.771Z,13.93
2023-03-02T14:12:29.253Z,13.65
2023-03-02T14:13:52.279Z,12.80
2023-03-02T14:14:55.123Z,13.60
2023-03-02T14:15:57.387Z,12.98
2023-03-02T14:16:59.047Z,13.18
2023-03-02T14:18:00.722Z,14.43
2023-03-02T14:19:02.643Z,12.50
2023-03-02T14:20:04.653Z,14.25
2023-03-02T14:21:14.311Z,13.43
2023-03-02T14:22:15.893Z,13.93
2023-03-02T14:23:17.490Z,13.68